Time;durP1;ratioP1;P1;durP2;ratioP2;P2;SDS_P1;SDS_P2;PMS_P1;PMS_P2;Temp;Humidity;BMP_temperature;BMP_pressure;BME280_temperature;BME280_humidity;BME280_pressure;Samples;Min_cycle;Max_cycle;Signal;HPM_P1;HPM_P2
2022/11/04 05:46:43;;;;;;;;;;;20.40;99.90;;;;;;5246522;23;19933;-87
2022/11/04 05:49:10;;;;;;;;;;;20.40;99.90;;;;;;4976148;28;19933;-86
2022/11/04 05:51:37;;;;;;;;;;;20.40;99.90;;;;;;4975920;28;19933;-86
2022/11/04 05:54:04;;;;;;;;;;;21.40;99.90;;;;;;4977517;28;19930;-84
2022/11/04 05:56:30;;;;;;;;;;;20.40;99.90;;;;;;4977827;28;20305;-84
2022/11/04 05:58:57;;;;;;;;;;;20.40;99.90;;;;;;4977187;28;20337;-81
2022/11/04 06:01:25;;;;;;;;;;;20.40;99.90;;;;;;4978457;28;19933;-80
2022/11/04 06:03:54;;;;;;;;;;;20.40;99.90;;;;;;4976643;28;19933;-80
2022/11/04 06:06:20;;;;;;;;;;;20.40;99.90;;;;;;4977554;28;19926;-81
2022/11/04 06:08:47;;;;;;;;;;;20.40;99.90;;;;;;4978260;28;20330;-80
2022/11/04 06:11:14;;;;;;;;;;;20.40;99.90;;;;;;4976998;28;19963;-82
2022/11/04 06:13:40;;;;;;;;;;;20.40;99.90;;;;;;4976751;28;19933;-82
2022/11/04 06:16:07;;;;;;;;;;;20.40;99.90;;;;;;4976548;28;19926;-78
2022/11/04 06:18:34;;;;;;;;;;;20.40;99.90;;;;;;4976195;28;19929;-78
2022/11/04 06:21:20;;;;;;;;;;;20.40;99.90;;;;;;4975858;28;19926;-78
2022/11/04 06:23:46;;;;;;;;;;;20.40;99.90;;;;;;4975914;28;19927;-77
2022/11/04 06:26:13;;;;;;;;;;;20.40;99.90;;;;;;4975949;28;19945;-80
2022/11/04 06:28:40;;;;;;;;;;;20.40;99.90;;;;;;4976232;28;20413;-81
2022/11/04 06:31:08;;;;;;;;;;;20.40;99.90;;;;;;4976137;28;19933;-79
2022/11/04 06:33:34;;;;;;;;;;;20.40;99.90;;;;;;4976784;28;19927;-79
2022/11/04 06:36:02;;;;;;;;;;;20.40;99.90;;;;;;4977131;28;19926;-79
2022/11/04 06:38:33;;;;;;;;;;;20.40;99.90;;;;;;4976540;28;19930;-79
2022/11/04 06:40:59;;;;;;;;;;;20.40;99.90;;;;;;4976814;28;19926;-79
2022/11/04 06:43:26;;;;;;;;;;;20.40;99.90;;;;;;4976873;28;19927;-79
2022/11/04 06:45:53;;;;;;;;;;;20.40;99.90;;;;;;4977483;28;19926;-79
2022/11/04 06:48:19;;;;;;;;;;;20.40;99.90;;;;;;4976497;28;19926;-78
2022/11/04 06:50:46;;;;;;;;;;;20.40;99.90;;;;;;4976422;28;19926;-78
2022/11/04 06:53:13;;;;;;;;;;;20.40;99.80;;;;;;4976381;28;19977;-78
2022/11/04 06:55:41;;;;;;;;;;;20.40;99.80;;;;;;4976308;28;19955;-78
2022/11/04 06:58:08;;;;;;;;;;;20.40;99.70;;;;;;4975716;28;19926;-78
2022/11/04 07:00:34;;;;;;;;;;;20.40;99.60;;;;;;4975804;28;19927;-78
2022/11/04 07:03:01;;;;;;;;;;;20.40;99.50;;;;;;4976343;28;19926;-78
2022/11/04 07:05:28;;;;;;;;;;;20.40;99.40;;;;;;4976410;28;19949;-79
2022/11/04 07:07:54;;;;;;;;;;;20.40;99.20;;;;;;4976428;28;19926;-79
2022/11/04 07:10:21;;;;;;;;;;;20.40;99.10;;;;;;4976151;28;20382;-79
2022/11/04 07:12:49;;;;;;;;;;;20.40;99.00;;;;;;4976519;28;19926;-79
2022/11/04 07:15:15;;;;;;;;;;;20.40;98.80;;;;;;4978453;28;19926;-79
2022/11/04 07:17:43;;;;;;;;;;;20.40;98.70;;;;;;4980137;28;19926;-79
2022/11/04 07:20:12;;;;;;;;;;;20.40;98.60;;;;;;4979808;28;20416;-79
2022/11/04 07:22:38;;;;;;;;;;;20.40;98.40;;;;;;4979829;28;20378;-79
2022/11/04 07:25:05;;;;;;;;;;;20.40;98.30;;;;;;4980030;28;19926;-79
2022/11/04 07:27:32;;;;;;;;;;;20.40;98.10;;;;;;4979509;28;19934;-79
2022/11/04 07:30:00;;;;;;;;;;;20.50;98.00;;;;;;4979654;28;19933;-78
2022/11/04 07:32:26;;;;;;;;;;;20.40;97.90;;;;;;4980015;28;19926;-78
2022/11/04 07:34:53;;;;;;;;;;;20.40;97.90;;;;;;4980099;28;19926;-78
2022/11/04 07:37:19;;;;;;;;;;;20.40;97.70;;;;;;4980169;28;19926;-78
2022/11/04 07:39:46;;;;;;;;;;;20.40;97.50;;;;;;4980014;28;19926;-78
2022/11/04 07:42:13;;;;;;;;;;;20.40;97.40;;;;;;4980398;28;19926;-78
2022/11/04 07:44:39;;;;;;;;;;;20.40;97.30;;;;;;4979964;28;19926;-78
2022/11/04 07:47:07;;;;;;;;;;;20.50;97.20;;;;;;4980202;28;19926;-79
2022/11/04 07:49:34;;;;;;;;;;;20.50;97.00;;;;;;4979915;28;19933;-78
2022/11/04 07:52:00;;;;;;;;;;;20.50;96.90;;;;;;4979972;28;19933;-78
2022/11/04 07:54:27;;;;;;;;;;;20.50;97.10;;;;;;4979928;28;19933;-79
2022/11/04 07:56:54;;;;;;;;;;;20.40;96.60;;;;;;4980481;28;20003;-79
2022/11/04 07:59:20;;;;;;;;;;;20.50;96.60;;;;;;4980316;28;19927;-79
2022/11/04 08:01:47;;;;;;;;;;;20.50;96.40;;;;;;4980456;28;19933;-79
2022/11/04 08:04:15;;;;;;;;;;;20.50;96.20;;;;;;4979933;28;19941;-79
2022/11/04 08:06:41;;;;;;;;;;;20.50;96.00;;;;;;4980206;28;20374;-79
2022/11/04 08:09:09;;;;;;;;;;;20.50;95.90;;;;;;4980108;28;20310;-79
2022/11/04 08:11:35;;;;;;;;;;;20.50;95.80;;;;;;4980116;28;19926;-79
2022/11/04 08:14:03;;;;;;;;;;;20.50;95.60;;;;;;4979628;28;20327;-79
2022/11/04 08:16:29;;;;;;;;;;;20.50;95.50;;;;;;4979221;28;20405;-79
2022/11/04 08:19:00;;;;;;;;;;;20.50;95.50;;;;;;4979518;28;20381;-78
2022/11/04 08:21:28;;;;;;;;;;;20.50;95.30;;;;;;4979774;28;19990;-78
2022/11/04 08:23:55;;;;;;;;;;;20.50;95.10;;;;;;4979536;28;19933;-79
2022/11/04 08:26:22;;;;;;;;;;;20.50;95.00;;;;;;4979334;28;19926;-79
2022/11/04 08:28:49;;;;;;;;;;;20.50;94.80;;;;;;4977930;28;19926;-76
2022/11/04 08:31:16;;;;;;;;;;;20.50;94.70;;;;;;4977665;28;19934;-77
2022/11/04 08:33:43;;;;;;;;;;;20.50;94.60;;;;;;4977928;28;19926;-77
2022/11/04 08:36:12;;;;;;;;;;;20.50;94.50;;;;;;4977514;28;19933;-77
2022/11/04 08:38:40;;;;;;;;;;;20.50;94.40;;;;;;4977622;28;19926;-78
2022/11/04 08:41:07;;;;;;;;;;;20.50;94.30;;;;;;4977480;28;20274;-77
2022/11/04 08:43:34;;;;;;;;;;;20.60;94.20;;;;;;4977438;28;19973;-77
2022/11/04 08:46:01;;;;;;;;;;;20.60;94.00;;;;;;4977013;28;19933;-77
2022/11/04 08:48:27;;;;;;;;;;;20.50;93.80;;;;;;4977225;28;19933;-76
2022/11/04 08:50:57;;;;;;;;;;;20.50;93.70;;;;;;4977042;28;19944;-76
2022/11/04 08:53:24;;;;;;;;;;;20.50;93.50;;;;;;4977834;28;19926;-76
2022/11/04 08:55:52;;;;;;;;;;;20.30;93.30;;;;;;4977231;28;19926;-77
2022/11/04 08:58:19;;;;;;;;;;;20.50;93.10;;;;;;4977121;28;19933;-77
2022/11/04 09:00:46;;;;;;;;;;;20.50;93.10;;;;;;4977816;28;19926;-77
2022/11/04 09:03:13;;;;;;;;;;;20.50;93.10;;;;;;4977829;28;19926;-78
2022/11/04 09:05:43;;;;;;;;;;;20.50;92.80;;;;;;4977703;28;19958;-78
2022/11/04 09:08:10;;;;;;;;;;;20.50;92.70;;;;;;4977171;28;19933;-78
2022/11/04 09:10:40;;;;;;;;;;;20.50;92.50;;;;;;4977975;28;20382;-83
2022/11/04 09:13:09;;;;;;;;;;;20.50;92.30;;;;;;4988070;28;19930;-82
2022/11/04 09:15:36;;;;;;;;;;;20.50;92.10;;;;;;4983221;28;20366;-81
2022/11/04 09:18:02;;;;;;;;;;;20.50;92.00;;;;;;4983574;28;19926;-81
2022/11/04 09:20:30;;;;;;;;;;;20.50;91.80;;;;;;4982931;28;20313;-81
2022/11/04 09:22:57;;;;;;;;;;;20.50;91.60;;;;;;4984873;28;20366;-81
2022/11/04 09:25:23;;;;;;;;;;;20.50;91.50;;;;;;4985123;28;20392;-81
2022/11/04 09:27:50;;;;;;;;;;;20.40;91.30;;;;;;4983753;28;19926;-81
2022/11/04 09:30:18;;;;;;;;;;;20.50;91.20;;;;;;4982112;28;19933;-82
2022/11/04 09:32:45;;;;;;;;;;;20.50;91.10;;;;;;4982255;28;19930;-79
2022/11/04 09:35:11;;;;;;;;;;;20.50;90.90;;;;;;4981223;28;20465;-79
2022/11/04 09:37:38;;;;;;;;;;;20.50;90.80;;;;;;4979018;28;19926;-79
2022/11/04 09:40:05;;;;;;;;;;;20.50;90.60;;;;;;4978010;28;19930;-79
2022/11/04 09:42:38;;;;;;;;;;;20.50;90.60;;;;;;4978106;28;19927;-79
2022/11/04 09:45:09;;;;;;;;;;;20.50;90.60;;;;;;4978036;28;20282;-79
2022/11/04 09:47:38;;;;;;;;;;;20.50;90.60;;;;;;4980813;28;20355;-79
2022/11/04 09:50:07;;;;;;;;;;;20.50;90.50;;;;;;4981102;28;19944;-78
2022/11/04 09:52:37;;;;;;;;;;;20.50;90.30;;;;;;4976583;28;19977;-77
2022/11/04 09:55:06;;;;;;;;;;;20.50;90.30;;;;;;4976230;28;19933;-79
2022/11/04 09:57:33;;;;;;;;;;;20.50;90.20;;;;;;4975964;28;19932;-77
2022/11/04 09:59:59;;;;;;;;;;;20.50;90.20;;;;;;4976020;28;19927;-77
2022/11/04 10:02:36;;;;;;;;;;;20.50;90.20;;;;;;4976855;28;20416;-78
2022/11/04 10:05:09;;;;;;;;;;;20.50;90.10;;;;;;4976720;28;19926;-78
2022/11/04 10:07:47;;;;;;;;;;;20.50;90.10;;;;;;4977236;28;19926;-78
2022/11/04 10:10:16;;;;;;;;;;;20.50;90.00;;;;;;4979154;28;19926;-77
2022/11/04 10:12:52;;;;;;;;;;;20.50;90.00;;;;;;4977667;28;19926;-79
2022/11/04 10:15:37;;;;;;;;;;;20.60;90.00;;;;;;4978054;28;19926;-78
2022/11/04 10:18:10;;;;;;;;;;;20.60;90.00;;;;;;4977964;28;20287;-80
2022/11/04 10:20:47;;;;;;;;;;;20.60;90.00;;;;;;4983282;28;19926;-79
2022/11/04 10:23:20;;;;;;;;;;;20.60;90.00;;;;;;4982061;28;19926;-78
2022/11/04 10:25:49;;;;;;;;;;;20.60;90.10;;;;;;4980956;28;19926;-78
2022/11/04 10:28:17;;;;;;;;;;;20.70;90.20;;;;;;4984596;28;19926;-81
2022/11/04 10:30:45;;;;;;;;;;;20.70;90.20;;;;;;4981391;28;19926;-78
2022/11/04 10:33:17;;;;;;;;;;;20.70;90.20;;;;;;4980357;28;19926;-77
2022/11/04 10:35:47;;;;;;;;;;;20.80;90.20;;;;;;4980831;28;19930;-77
2022/11/04 10:38:18;;;;;;;;;;;20.70;90.10;;;;;;4980820;28;19985;-77
2022/11/04 10:40:46;;;;;;;;;;;20.70;90.00;;;;;;4980886;28;19972;-78
2022/11/04 10:43:16;;;;;;;;;;;20.70;89.90;;;;;;4980527;28;19969;-78
2022/11/04 10:45:46;;;;;;;;;;;20.70;89.70;;;;;;4980967;28;19926;-78
2022/11/04 10:48:16;;;;;;;;;;;20.70;89.60;;;;;;4982702;28;19973;-78
2022/11/04 10:50:49;;;;;;;;;;;20.70;89.40;;;;;;4981528;28;19981;-78
2022/11/04 10:53:18;;;;;;;;;;;20.80;89.40;;;;;;4981521;28;19926;-78
2022/11/04 10:55:49;;;;;;;;;;;20.80;89.20;;;;;;4982514;28;19930;-78
2022/11/04 10:58:18;;;;;;;;;;;20.70;88.90;;;;;;4980308;28;19926;-78
2022/11/04 11:00:45;;;;;;;;;;;20.70;88.70;;;;;;4982095;28;20386;-78
2022/11/04 11:03:29;;;;;;;;;;;20.70;88.50;;;;;;4981854;28;19969;-78
2022/11/04 11:06:10;;;;;;;;;;;20.70;88.30;;;;;;4981209;28;20006;-75
2022/11/04 11:08:38;;;;;;;;;;;20.70;88.10;;;;;;4980114;28;19926;-75
2022/11/04 11:11:05;;;;;;;;;;;20.70;88.00;;;;;;4980013;28;19930;-75
2022/11/04 11:13:35;;;;;;;;;;;20.70;87.80;;;;;;4980168;28;19930;-75
2022/11/04 11:16:07;;;;;;;;;;;20.70;87.60;;;;;;4981927;28;19926;-77
2022/11/04 11:18:36;;;;;;;;;;;20.70;87.40;;;;;;4984973;28;19927;-79
2022/11/04 11:21:07;;;;;;;;;;;20.70;87.40;;;;;;4984043;28;19926;-82
2022/11/04 11:23:41;;;;;;;;;;;20.70;87.30;;;;;;4983494;28;19926;-82
2022/11/04 11:26:09;;;;;;;;;;;20.70;87.20;;;;;;4981921;28;19926;-80
2022/11/04 11:28:39;;;;;;;;;;;20.70;87.00;;;;;;4981978;28;19930;-78
2022/11/04 11:31:12;;;;;;;;;;;20.70;87.00;;;;;;4981088;28;20358;-81
2022/11/04 11:33:41;;;;;;;;;;;20.70;86.90;;;;;;4980841;28;19973;-81
2022/11/04 11:36:11;;;;;;;;;;;20.70;87.00;;;;;;4980762;28;19926;-79
2022/11/04 11:38:51;;;;;;;;;;;20.80;87.10;;;;;;4980597;28;19933;-80
2022/11/04 11:41:22;;;;;;;;;;;20.80;87.00;;;;;;4979867;28;19927;-82
2022/11/04 11:43:50;;;;;;;;;;;20.70;86.80;;;;;;4975949;28;20005;-81
2022/11/04 11:46:21;;;;;;;;;;;20.80;86.90;;;;;;4975632;28;19933;-81
2022/11/04 11:48:50;;;;;;;;;;;20.80;87.00;;;;;;4975599;28;19933;-82
2022/11/04 11:51:23;;;;;;;;;;;20.70;87.70;;;;;;4975649;28;20378;-81
2022/11/04 11:54:02;;;;;;;;;;;20.80;87.20;;;;;;4976024;28;19926;-81
2022/11/04 11:56:32;;;;;;;;;;;20.80;87.30;;;;;;4975780;28;19937;-81
2022/11/04 11:59:06;;;;;;;;;;;20.80;87.40;;;;;;4975799;28;19937;-82
2022/11/04 12:01:35;;;;;;;;;;;20.80;87.50;;;;;;4977027;28;19933;-82
2022/11/04 12:04:01;;;;;;;;;;;20.90;87.70;;;;;;4980404;28;20298;-83
2022/11/04 12:06:32;;;;;;;;;;;20.90;87.70;;;;;;4979252;28;19926;-82
2022/11/04 12:09:06;;;;;;;;;;;20.90;87.80;;;;;;4979584;28;19927;-82
2022/11/04 12:11:36;;;;;;;;;;;20.90;87.80;;;;;;4979929;28;19932;-83
2022/11/04 12:14:05;;;;;;;;;;;20.90;87.90;;;;;;4979836;28;19926;-83
2022/11/04 12:16:34;;;;;;;;;;;20.90;88.00;;;;;;4979931;28;20448;-83
2022/11/04 12:19:14;;;;;;;;;;;21.00;88.20;;;;;;4980715;28;19934;-83
2022/11/04 12:21:42;;;;;;;;;;;21.00;88.20;;;;;;4980328;28;19930;-82
2022/11/04 12:24:17;;;;;;;;;;;21.00;88.40;;;;;;4984488;28;20293;-80
2022/11/04 12:26:49;;;;;;;;;;;21.10;88.60;;;;;;4984569;28;19926;-82
2022/11/04 12:29:28;;;;;;;;;;;21.10;88.60;;;;;;4984152;28;19973;-82
2022/11/04 12:31:59;;;;;;;;;;;21.10;88.60;;;;;;4984935;28;19926;-81
2022/11/04 12:34:32;;;;;;;;;;;21.10;88.60;;;;;;4984508;28;19936;-80
2022/11/04 12:37:07;;;;;;;;;;;21.20;88.70;;;;;;4986495;28;19961;-79
2022/11/04 12:39:45;;;;;;;;;;;21.20;88.70;;;;;;4985809;28;19941;-81
2022/11/04 12:42:16;;;;;;;;;;;21.20;88.70;;;;;;4984275;28;19926;-82
2022/11/04 12:44:48;;;;;;;;;;;21.20;88.70;;;;;;4983777;28;19927;-81
2022/11/04 12:47:19;;;;;;;;;;;21.20;88.60;;;;;;4985922;28;20382;-81
2022/11/04 12:49:53;;;;;;;;;;;21.20;88.50;;;;;;4987023;28;19958;-81
2022/11/04 12:52:29;;;;;;;;;;;21.30;88.50;;;;;;4986489;28;19926;-81
2022/11/04 12:55:05;;;;;;;;;;;21.30;88.50;;;;;;4987101;28;19930;-82
2022/11/04 12:57:36;;;;;;;;;;;21.30;88.40;;;;;;4984106;28;19926;-83
2022/11/04 13:00:08;;;;;;;;;;;21.30;88.30;;;;;;4984625;28;19926;-83
2022/11/04 13:02:39;;;;;;;;;;;21.30;88.20;;;;;;4984615;28;19976;-83
2022/11/04 13:05:09;;;;;;;;;;;21.30;88.10;;;;;;4983881;28;19952;-83
2022/11/04 13:07:40;;;;;;;;;;;21.30;88.00;;;;;;4984097;28;20386;-79
2022/11/04 13:10:12;;;;;;;;;;;21.30;87.90;;;;;;4984518;28;20382;-80
2022/11/04 13:12:41;;;;;;;;;;;21.30;87.80;;;;;;4984022;28;19930;-80
2022/11/04 13:15:14;;;;;;;;;;;21.40;87.80;;;;;;4984719;28;19927;-82
2022/11/04 13:17:42;;;;;;;;;;;21.40;87.60;;;;;;4983502;28;19926;-82
2022/11/04 13:20:15;;;;;;;;;;;21.40;87.30;;;;;;4985193;28;20396;-82
2022/11/04 13:22:45;;;;;;;;;;;21.40;87.10;;;;;;4984486;28;19958;-82
2022/11/04 13:25:16;;;;;;;;;;;21.40;86.80;;;;;;4983380;28;19926;-82
2022/11/04 13:27:44;;;;;;;;;;;21.40;86.70;;;;;;4982489;28;19926;-82
2022/11/04 13:30:20;;;;;;;;;;;21.40;86.70;;;;;;4983267;28;20325;-80
2022/11/04 13:32:49;;;;;;;;;;;21.40;86.70;;;;;;4983138;28;19932;-82
2022/11/04 13:35:20;;;;;;;;;;;21.40;86.50;;;;;;4983183;28;19990;-82
2022/11/04 13:37:52;;;;;;;;;;;21.40;86.10;;;;;;4983090;28;19926;-82
2022/11/04 13:40:22;;;;;;;;;;;21.40;85.80;;;;;;4980705;28;19933;-82
2022/11/04 13:43:36;;;;;;;;;;;21.40;85.50;;;;;;4981562;28;20292;-82
2022/11/04 13:45:47;;;;;;;;;;;21.40;85.30;;;;;;4980254;28;19926;-83
2022/11/04 13:48:19;;;;;;;;;;;21.40;85.00;;;;;;4979159;28;19926;-83
2022/11/04 13:50:55;;;;;;;;;;;21.40;84.80;;;;;;4979516;28;19936;-83
2022/11/04 13:53:39;;;;;;;;;;;21.40;84.50;;;;;;4980159;28;19926;-83
2022/11/04 13:56:07;;;;;;;;;;;21.40;84.30;;;;;;4979838;28;19930;-83
2022/11/04 13:58:34;;;;;;;;;;;21.40;84.10;;;;;;4979833;28;20382;-83
2022/11/04 14:01:11;;;;;;;;;;;21.40;83.80;;;;;;4980501;28;19934;-83
2022/11/04 14:03:39;;;;;;;;;;;21.40;83.60;;;;;;4980077;28;20374;-81
2022/11/04 14:06:06;;;;;;;;;;;21.50;83.50;;;;;;4979294;28;19930;-84
2022/11/04 14:08:33;;;;;;;;;;;21.40;83.20;;;;;;4981721;28;19933;-82
2022/11/04 14:11:11;;;;;;;;;;;21.40;83.10;;;;;;4982493;28;19926;-82
2022/11/04 14:13:43;;;;;;;;;;;21.40;82.90;;;;;;4981001;28;19977;-82
2022/11/04 14:16:10;;;;;;;;;;;21.50;82.80;;;;;;4980250;28;19926;-82
2022/11/04 14:18:38;;;;;;;;;;;21.50;82.70;;;;;;4982019;28;19953;-82
2022/11/04 14:21:06;;;;;;;;;;;21.50;82.50;;;;;;4980872;28;19933;-81
2022/11/04 14:23:33;;;;;;;;;;;21.50;82.20;;;;;;4977660;28;19933;-79
2022/11/04 14:26:01;;;;;;;;;;;21.50;82.00;;;;;;4976803;28;19973;-79
2022/11/04 14:28:30;;;;;;;;;;;21.50;81.80;;;;;;4977896;28;20414;-79
2022/11/04 14:30:57;;;;;;;;;;;21.50;81.50;;;;;;4976910;28;19980;-79
2022/11/04 14:33:31;;;;;;;;;;;21.50;81.10;;;;;;4977604;28;19930;-79
2022/11/04 14:36:13;;;;;;;;;;;21.50;81.10;;;;;;4977828;28;20347;-79
2022/11/04 14:38:40;;;;;;;;;;;21.50;81.10;;;;;;4977509;28;19929;-79
2022/11/04 14:41:15;;;;;;;;;;;21.50;81.10;;;;;;4977289;28;19926;-78
2022/11/04 14:43:45;;;;;;;;;;;21.50;81.10;;;;;;4978033;28;19926;-79
2022/11/04 14:46:12;;;;;;;;;;;21.50;80.90;;;;;;4978752;28;19932;-82
2022/11/04 14:48:43;;;;;;;;;;;21.40;80.60;;;;;;4982587;28;19934;-82
2022/11/04 14:51:21;;;;;;;;;;;21.50;80.50;;;;;;4980990;28;19948;-82
2022/11/04 14:53:48;;;;;;;;;;;21.40;80.30;;;;;;4980545;28;19950;-82
2022/11/04 14:56:22;;;;;;;;;;;21.40;80.10;;;;;;4981866;28;19933;-81
2022/11/04 14:58:55;;;;;;;;;;;21.40;80.00;;;;;;4983816;28;19933;-81
2022/11/04 15:01:23;;;;;;;;;;;21.40;79.90;;;;;;4977073;28;19933;-82
2022/11/04 15:03:50;;;;;;;;;;;21.40;79.90;;;;;;4976098;28;20341;-82
2022/11/04 15:06:23;;;;;;;;;;;21.40;79.80;;;;;;4976139;28;19938;-82
2022/11/04 15:08:50;;;;;;;;;;;21.40;79.70;;;;;;4977575;28;20365;-83
2022/11/04 15:12:49;;;;;;;;;;;21.40;79.70;;;;;;4977692;28;19937;-82
2022/11/04 15:14:12;;;;;;;;;;;20.90;79.10;;;;;;4977743;28;19933;-83
2022/11/04 15:16:40;;;;;;;;;;;21.30;79.50;;;;;;4976932;28;19926;-80
2022/11/04 15:19:08;;;;;;;;;;;21.30;79.60;;;;;;4977298;28;19936;-80
2022/11/04 15:21:38;;;;;;;;;;;21.40;79.70;;;;;;4976492;28;20401;-81
2022/11/04 15:24:05;;;;;;;;;;;21.30;79.50;;;;;;4978513;28;20433;-79
2022/11/04 15:26:32;;;;;;;;;;;21.30;79.40;;;;;;4976498;28;20298;-79
2022/11/04 15:29:00;;;;;;;;;;;21.30;79.40;;;;;;4976069;28;19926;-80
2022/11/04 15:31:29;;;;;;;;;;;21.30;79.40;;;;;;4975825;28;20033;-80
2022/11/04 15:33:57;;;;;;;;;;;21.20;79.40;;;;;;4975953;28;19926;-80
2022/11/04 15:36:25;;;;;;;;;;;21.30;79.50;;;;;;4977029;28;20402;-80
2022/11/04 15:38:54;;;;;;;;;;;21.20;79.50;;;;;;4983753;28;19950;-80
2022/11/04 15:44:13;;;;;;;;;;;21.30;79.90;;;;;;4983495;28;20404;-81
2022/11/04 15:46:46;;;;;;;;;;;20.90;79.60;;;;;;4983233;28;19927;-81
2022/11/04 15:49:19;;;;;;;;;;;21.30;80.00;;;;;;4982433;28;20275;-81
2022/11/04 15:51:46;;;;;;;;;;;21.30;80.70;;;;;;4984607;28;19926;-80
2022/11/04 15:54:18;;;;;;;;;;;21.30;80.00;;;;;;4987991;28;20409;-79
2022/11/04 15:56:49;;;;;;;;;;;21.30;80.00;;;;;;4984455;28;20507;-79
2022/11/04 15:59:18;;;;;;;;;;;21.20;79.80;;;;;;4983611;28;19926;-80
2022/11/04 16:01:48;;;;;;;;;;;21.30;79.90;;;;;;4986329;28;19926;-80
2022/11/04 16:04:15;;;;;;;;;;;21.30;79.80;;;;;;4986996;28;19933;-82
2022/11/04 16:06:42;;;;;;;;;;;21.20;79.70;;;;;;4985015;28;20013;-81
2022/11/04 16:09:19;;;;;;;;;;;20.90;79.30;;;;;;4986419;28;19934;-81
2022/11/04 16:12:05;;;;;;;;;;;21.20;79.50;;;;;;4986694;28;20294;-81
2022/11/04 16:14:32;;;;;;;;;;;21.20;79.50;;;;;;4986405;28;19926;-81
2022/11/04 16:17:00;;;;;;;;;;;21.10;79.50;;;;;;4985452;28;19933;-82
2022/11/04 16:19:28;;;;;;;;;;;21.00;79.40;;;;;;4986083;28;20302;-82
2022/11/04 16:21:59;;;;;;;;;;;21.20;79.60;;;;;;4985454;28;19926;-81
2022/11/04 16:24:27;;;;;;;;;;;21.20;79.50;;;;;;4984902;28;19950;-82
2022/11/04 16:26:54;;;;;;;;;;;20.70;79.00;;;;;;4984294;28;19949;-81
2022/11/04 16:29:23;;;;;;;;;;;21.20;79.60;;;;;;4985617;28;19926;-83
2022/11/04 16:34:44;;;;;;;;;;;21.10;79.50;;;;;;5124800;27;20411;-78
2022/11/04 16:37:11;;;;;;;;;;;21.10;79.50;;;;;;5124778;28;19973;-79
2022/11/04 16:39:38;;;;;;;;;;;21.80;80.30;;;;;;5130523;28;19959;-79
2022/11/04 16:42:04;;;;;;;;;;;21.10;79.50;;;;;;5117758;28;19927;-80
2022/11/04 16:44:31;;;;;;;;;;;21.10;79.60;;;;;;5116884;28;19928;-76
2022/11/04 16:46:58;;;;;;;;;;;21.10;79.60;;;;;;5111346;28;20326;-76
2022/11/04 16:49:25;;;;;;;;;;;21.20;79.80;;;;;;5111771;28;19924;-76
2022/11/04 16:51:54;;;;;;;;;;;21.10;79.80;;;;;;5111322;28;20383;-75
2022/11/04 16:54:21;;;;;;;;;;;21.10;80.00;;;;;;5111382;28;19924;-76
2022/11/04 16:56:48;;;;;;;;;;;21.20;80.20;;;;;;5111531;28;19932;-75
2022/11/04 16:59:14;;;;;;;;;;;21.20;80.30;;;;;;5111597;28;19928;-75
2022/11/04 17:01:41;;;;;;;;;;;21.20;80.50;;;;;;5111498;28;19924;-75
2022/11/04 17:04:08;;;;;;;;;;;21.20;80.60;;;;;;5111129;28;19924;-75
2022/11/04 17:06:34;;;;;;;;;;;21.20;80.70;;;;;;5111878;28;19969;-75
2022/11/04 17:09:03;;;;;;;;;;;21.20;80.80;;;;;;5111375;28;19931;-75
2022/11/04 17:11:29;;;;;;;;;;;21.20;80.80;;;;;;5110996;28;20379;-76
2022/11/04 17:13:56;;;;;;;;;;;21.20;80.80;;;;;;5111224;28;19931;-75
2022/11/04 17:16:23;;;;;;;;;;;21.20;80.80;;;;;;5111119;28;19932;-75
2022/11/04 17:18:49;;;;;;;;;;;21.20;80.80;;;;;;5111145;28;19943;-75
2022/11/04 17:21:16;;;;;;;;;;;21.20;80.80;;;;;;5110802;28;20314;-75
2022/11/04 17:23:43;;;;;;;;;;;21.20;80.80;;;;;;5111841;28;19924;-76
2022/11/04 17:26:11;;;;;;;;;;;21.20;80.80;;;;;;5111055;28;19946;-76
2022/11/04 17:28:38;;;;;;;;;;;21.20;80.80;;;;;;5111375;28;20426;-76
2022/11/04 17:31:05;;;;;;;;;;;21.20;80.80;;;;;;5112049;28;19928;-75
2022/11/04 17:33:31;;;;;;;;;;;21.20;80.80;;;;;;5122588;28;19927;-75
2022/11/04 17:35:58;;;;;;;;;;;21.20;80.80;;;;;;5132208;28;19931;-76
2022/11/04 17:38:25;;;;;;;;;;;21.20;80.80;;;;;;5132036;28;20026;-76
2022/11/04 17:46:37;;;;;;;;;;;21.20;80.80;;;;;;5117892;28;20394;-76
2022/11/04 17:49:05;;;;;;;;;;;21.20;80.90;;;;;;5118606;28;19923;-75
2022/11/04 17:51:32;;;;;;;;;;;21.20;81.10;;;;;;5117776;28;20363;-77
2022/11/04 17:53:59;;;;;;;;;;;21.20;81.20;;;;;;5117470;28;19924;-77
2022/11/04 17:56:26;;;;;;;;;;;21.20;81.40;;;;;;5117130;28;19931;-76
2022/11/04 17:58:53;;;;;;;;;;;21.20;81.50;;;;;;5117259;28;19931;-76
2022/11/04 18:01:21;;;;;;;;;;;21.20;81.60;;;;;;5117104;28;19931;-76
2022/11/04 18:03:47;;;;;;;;;;;21.20;81.70;;;;;;5117167;28;19923;-76
2022/11/04 18:06:14;;;;;;;;;;;21.20;81.70;;;;;;5116736;28;20398;-76
2022/11/04 18:08:40;;;;;;;;;;;21.20;81.80;;;;;;5116970;28;19924;-76
2022/11/04 18:11:08;;;;;;;;;;;21.30;81.90;;;;;;5116877;28;20014;-76
2022/11/04 18:13:34;;;;;;;;;;;21.30;82.00;;;;;;5116849;28;19946;-76
2022/11/04 18:16:09;;;;;;;;;;;21.20;81.90;;;;;;5116887;28;19960;-76
2022/11/04 18:18:36;;;;;;;;;;;21.20;81.90;;;;;;5116842;28;19934;-76
2022/11/04 18:21:02;;;;;;;;;;;21.20;81.90;;;;;;5116750;28;19939;-76
2022/11/04 18:23:29;;;;;;;;;;;21.20;81.80;;;;;;5116690;28;19973;-76
2022/11/04 18:25:56;;;;;;;;;;;21.20;81.80;;;;;;5116566;28;19927;-76
2022/11/04 18:28:22;;;;;;;;;;;21.20;81.80;;;;;;5116602;28;20268;-76
2022/11/04 18:30:49;;;;;;;;;;;21.20;81.80;;;;;;5116545;28;19931;-76
2022/11/04 18:33:17;;;;;;;;;;;21.10;81.70;;;;;;5116004;28;20397;-76
2022/11/04 18:35:43;;;;;;;;;;;21.10;81.70;;;;;;5116054;28;20299;-76
2022/11/04 18:38:10;;;;;;;;;;;21.10;81.70;;;;;;5116443;28;19930;-76
2022/11/04 18:40:36;;;;;;;;;;;21.10;81.70;;;;;;5116021;28;19931;-76
2022/11/04 18:43:03;;;;;;;;;;;21.10;81.70;;;;;;5116325;28;19924;-76
2022/11/04 18:45:30;;;;;;;;;;;21.10;81.70;;;;;;5115865;28;20329;-76
2022/11/04 18:47:56;;;;;;;;;;;21.10;81.70;;;;;;5116174;28;19924;-76
2022/11/04 18:50:24;;;;;;;;;;;21.10;81.70;;;;;;5116182;28;19931;-76
2022/11/04 18:52:53;;;;;;;;;;;21.10;81.80;;;;;;5116128;28;19931;-76
2022/11/04 18:55:19;;;;;;;;;;;21.10;81.80;;;;;;5115934;28;19923;-76
2022/11/04 18:57:46;;;;;;;;;;;21.10;81.90;;;;;;5115057;28;20294;-76
2022/11/04 19:00:13;;;;;;;;;;;21.10;82.00;;;;;;5116065;28;19923;-76
2022/11/04 19:02:40;;;;;;;;;;;21.10;82.10;;;;;;5115620;28;19931;-76
2022/11/04 19:05:06;;;;;;;;;;;21.10;82.10;;;;;;5115518;28;19932;-77
2022/11/04 19:07:34;;;;;;;;;;;21.10;82.20;;;;;;5115550;28;20314;-77
2022/11/04 19:10:01;;;;;;;;;;;21.10;82.20;;;;;;5115778;28;19924;-77
2022/11/04 19:15:11;;;;;;;;;;;21.10;82.30;;;;;;5115362;28;19931;-77
2022/11/04 19:17:38;;;;;;;;;;;21.10;82.40;;;;;;5115620;28;19923;-77
2022/11/04 19:20:05;;;;;;;;;;;21.10;82.40;;;;;;5115599;28;19923;-77
2022/11/04 19:22:31;;;;;;;;;;;21.10;82.40;;;;;;5115541;28;19950;-77
2022/11/04 19:24:59;;;;;;;;;;;21.10;82.40;;;;;;5115431;28;19930;-77
2022/11/04 19:27:26;;;;;;;;;;;21.10;82.40;;;;;;5115405;28;19935;-77
2022/11/04 19:29:53;;;;;;;;;;;21.00;82.30;;;;;;5115415;28;19928;-77
2022/11/04 19:32:19;;;;;;;;;;;21.00;82.30;;;;;;5115138;28;19978;-77
2022/11/04 19:34:46;;;;;;;;;;;21.00;83.00;;;;;;5114995;28;20402;-77
2022/11/04 19:37:13;;;;;;;;;;;21.00;82.30;;;;;;5115320;28;19931;-77
2022/11/04 19:39:39;;;;;;;;;;;21.00;82.30;;;;;;5115129;28;19924;-77
2022/11/04 19:44:53;;;;;;;;;;;21.00;82.60;;;;;;5116467;28;20291;-77
2022/11/04 19:47:19;;;;;;;;;;;21.00;82.80;;;;;;5115038;28;19924;-77
2022/11/04 19:49:46;;;;;;;;;;;21.10;83.10;;;;;;5114993;28;19927;-77
2022/11/04 19:52:12;;;;;;;;;;;21.10;83.40;;;;;;5115029;28;19931;-77
2022/11/04 19:54:39;;;;;;;;;;;21.10;83.60;;;;;;5114838;28;19924;-77
2022/11/04 19:57:07;;;;;;;;;;;21.10;83.80;;;;;;5114850;28;19927;-78
2022/11/04 19:59:34;;;;;;;;;;;21.20;84.10;;;;;;5114576;28;19998;-78
2022/11/04 20:02:00;;;;;;;;;;;21.20;84.20;;;;;;5114822;28;19924;-77
2022/11/04 20:04:27;;;;;;;;;;;21.20;84.30;;;;;;5114861;28;19931;-77
2022/11/04 20:06:54;;;;;;;;;;;21.30;84.50;;;;;;5114720;28;20294;-77
2022/11/04 20:09:21;;;;;;;;;;;21.20;84.50;;;;;;5116265;28;19923;-79
2022/11/04 20:14:33;;;;;;;;;;;21.20;84.60;;;;;;5115557;28;20028;-78
2022/11/04 20:16:59;;;;;;;;;;;21.20;84.70;;;;;;5115403;28;20019;-78
2022/11/04 20:19:26;;;;;;;;;;;21.20;84.80;;;;;;5115044;28;19927;-78
2022/11/04 20:21:52;;;;;;;;;;;21.20;84.90;;;;;;5114901;28;19924;-78
2022/11/04 20:24:19;;;;;;;;;;;21.20;84.90;;;;;;5114473;28;19924;-78
2022/11/04 20:26:46;;;;;;;;;;;21.30;85.00;;;;;;5114583;28;20449;-79
2022/11/04 20:29:14;;;;;;;;;;;21.20;85.00;;;;;;5114807;28;20344;-78
2022/11/04 20:31:43;;;;;;;;;;;21.50;85.30;;;;;;5114626;28;19941;-78